sensor_id;sensor_type;location;lat;lon;timestamp;P1;durP1;ratioP1;P2;durP2;ratioP2
3423;SDS011;72707;50.120;8.500;2023-09-19T00:00:33;6.40;;;3.13;;
3423;SDS011;72707;50.120;8.500;2023-09-19T00:03:00;6.27;;;2.97;;
3423;SDS011;72707;50.120;8.500;2023-09-19T00:05:26;8.87;;;3.17;;
3423;SDS011;72707;50.120;8.500;2023-09-19T00:07:54;5.77;;;2.53;;
3423;SDS011;72707;50.120;8.500;2023-09-19T00:10:23;6.60;;;3.07;;
3423;SDS011;72707;50.120;8.500;2023-09-19T00:12:56;8.73;;;3.03;;
3423;SDS011;72707;50.120;8.500;2023-09-19T00:15:25;5.93;;;2.73;;
3423;SDS011;72707;50.120;8.500;2023-09-19T00:17:54;6.07;;;2.40;;
3423;SDS011;72707;50.120;8.500;2023-09-19T00:20:21;5.17;;;2.13;;
3423;SDS011;72707;50.120;8.500;2023-09-19T00:22:48;4.13;;;2.10;;
3423;SDS011;72707;50.120;8.500;2023-09-19T00:25:18;5.57;;;2.20;;
3423;SDS011;72707;50.120;8.500;2023-09-19T00:27:44;7.47;;;2.63;;
3423;SDS011;72707;50.120;8.500;2023-09-19T00:30:15;4.03;;;1.90;;
3423;SDS011;72707;50.120;8.500;2023-09-19T00:32:41;6.20;;;2.43;;
3423;SDS011;72707;50.120;8.500;2023-09-19T00:35:07;7.10;;;2.87;;
3423;SDS011;72707;50.120;8.500;2023-09-19T00:37:35;5.33;;;2.30;;
3423;SDS011;72707;50.120;8.500;2023-09-19T00:40:01;3.30;;;1.70;;
3423;SDS011;72707;50.120;8.500;2023-09-19T00:42:29;8.73;;;2.63;;
3423;SDS011;72707;50.120;8.500;2023-09-19T00:44:55;3.40;;;2.03;;
3423;SDS011;72707;50.120;8.500;2023-09-19T00:47:20;3.77;;;2.00;;
3423;SDS011;72707;50.120;8.500;2023-09-19T00:49:46;6.83;;;2.17;;
3423;SDS011;72707;50.120;8.500;2023-09-19T00:52:17;4.93;;;2.10;;
3423;SDS011;72707;50.120;8.500;2023-09-19T00:54:46;3.97;;;2.17;;
3423;SDS011;72707;50.120;8.500;2023-09-19T00:57:14;3.70;;;1.97;;
3423;SDS011;72707;50.120;8.500;2023-09-19T00:59:40;6.23;;;2.50;;
3423;SDS011;72707;50.120;8.500;2023-09-19T01:02:07;5.17;;;2.27;;
3423;SDS011;72707;50.120;8.500;2023-09-19T01:04:33;3.10;;;1.90;;
3423;SDS011;72707;50.120;8.500;2023-09-19T01:06:59;8.23;;;2.40;;
3423;SDS011;72707;50.120;8.500;2023-09-19T01:09:24;5.40;;;2.07;;
3423;SDS011;72707;50.120;8.500;2023-09-19T01:11:53;5.17;;;2.10;;
3423;SDS011;72707;50.120;8.500;2023-09-19T01:14:31;6.87;;;2.47;;
3423;SDS011;72707;50.120;8.500;2023-09-19T01:17:22;2.70;;;1.90;;
3423;SDS011;72707;50.120;8.500;2023-09-19T01:20:00;4.47;;;2.20;;
3423;SDS011;72707;50.120;8.500;2023-09-19T01:22:48;2.17;;;1.77;;
3423;SDS011;72707;50.120;8.500;2023-09-19T01:30:58;4.97;;;2.50;;
3423;SDS011;72707;50.120;8.500;2023-09-19T01:33:25;2.97;;;2.03;;
3423;SDS011;72707;50.120;8.500;2023-09-19T01:35:51;6.17;;;2.37;;
3423;SDS011;72707;50.120;8.500;2023-09-19T01:38:18;5.07;;;2.37;;
3423;SDS011;72707;50.120;8.500;2023-09-19T01:40:48;3.57;;;1.97;;
3423;SDS011;72707;50.120;8.500;2023-09-19T01:43:28;4.80;;;2.17;;
3423;SDS011;72707;50.120;8.500;2023-09-19T01:46:09;4.67;;;2.37;;
3423;SDS011;72707;50.120;8.500;2023-09-19T01:48:54;6.50;;;2.33;;
3423;SDS011;72707;50.120;8.500;2023-09-19T01:51:55;6.57;;;2.53;;
3423;SDS011;72707;50.120;8.500;2023-09-19T01:54:40;5.90;;;2.67;;
3423;SDS011;72707;50.120;8.500;2023-09-19T01:59:57;5.40;;;2.77;;
3423;SDS011;72707;50.120;8.500;2023-09-19T02:02:34;5.33;;;2.27;;
3423;SDS011;72707;50.120;8.500;2023-09-19T02:05:01;3.20;;;2.10;;
3423;SDS011;72707;50.120;8.500;2023-09-19T02:07:28;3.97;;;2.17;;
3423;SDS011;72707;50.120;8.500;2023-09-19T02:09:56;4.97;;;2.27;;
3423;SDS011;72707;50.120;8.500;2023-09-19T02:12:24;3.67;;;2.40;;
3423;SDS011;72707;50.120;8.500;2023-09-19T02:14:50;3.17;;;2.40;;
3423;SDS011;72707;50.120;8.500;2023-09-19T02:17:15;4.67;;;2.57;;
3423;SDS011;72707;50.120;8.500;2023-09-19T02:19:42;5.17;;;2.73;;
3423;SDS011;72707;50.120;8.500;2023-09-19T02:22:07;6.67;;;2.80;;
3423;SDS011;72707;50.120;8.500;2023-09-19T02:24:36;7.53;;;3.03;;
3423;SDS011;72707;50.120;8.500;2023-09-19T02:27:03;4.77;;;2.83;;
3423;SDS011;72707;50.120;8.500;2023-09-19T02:29:31;4.77;;;2.77;;
3423;SDS011;72707;50.120;8.500;2023-09-19T02:31:59;3.50;;;2.43;;
3423;SDS011;72707;50.120;8.500;2023-09-19T02:34:26;4.57;;;2.70;;
3423;SDS011;72707;50.120;8.500;2023-09-19T02:36:52;3.20;;;2.83;;
3423;SDS011;72707;50.120;8.500;2023-09-19T02:39:19;6.00;;;2.90;;
3423;SDS011;72707;50.120;8.500;2023-09-19T02:41:45;4.30;;;2.47;;
3423;SDS011;72707;50.120;8.500;2023-09-19T02:44:12;5.40;;;3.20;;
3423;SDS011;72707;50.120;8.500;2023-09-19T02:46:39;5.70;;;3.00;;
3423;SDS011;72707;50.120;8.500;2023-09-19T02:49:06;3.03;;;2.30;;
3423;SDS011;72707;50.120;8.500;2023-09-19T02:51:32;6.30;;;2.67;;
3423;SDS011;72707;50.120;8.500;2023-09-19T02:54:01;5.73;;;2.80;;
3423;SDS011;72707;50.120;8.500;2023-09-19T02:56:28;3.57;;;2.87;;
3423;SDS011;72707;50.120;8.500;2023-09-19T02:58:55;5.33;;;2.60;;
3423;SDS011;72707;50.120;8.500;2023-09-19T03:01:21;4.03;;;2.73;;
3423;SDS011;72707;50.120;8.500;2023-09-19T03:03:47;5.47;;;2.90;;
3423;SDS011;72707;50.120;8.500;2023-09-19T03:06:13;6.60;;;3.00;;
3423;SDS011;72707;50.120;8.500;2023-09-19T03:08:39;5.77;;;3.33;;
3423;SDS011;72707;50.120;8.500;2023-09-19T03:11:10;3.40;;;2.40;;
3423;SDS011;72707;50.120;8.500;2023-09-19T03:13:39;6.60;;;3.17;;
3423;SDS011;72707;50.120;8.500;2023-09-19T03:16:06;5.23;;;3.30;;
3423;SDS011;72707;50.120;8.500;2023-09-19T03:18:33;4.80;;;3.00;;
3423;SDS011;72707;50.120;8.500;2023-09-19T03:21:00;6.70;;;3.30;;
3423;SDS011;72707;50.120;8.500;2023-09-19T03:23:27;4.33;;;2.97;;
3423;SDS011;72707;50.120;8.500;2023-09-19T03:25:56;3.87;;;2.83;;
3423;SDS011;72707;50.120;8.500;2023-09-19T03:28:40;6.77;;;3.53;;
3423;SDS011;72707;50.120;8.500;2023-09-19T03:31:07;4.67;;;3.00;;
3423;SDS011;72707;50.120;8.500;2023-09-19T03:33:33;4.07;;;2.77;;
3423;SDS011;72707;50.120;8.500;2023-09-19T03:36:00;6.53;;;3.27;;
3423;SDS011;72707;50.120;8.500;2023-09-19T03:38:29;6.53;;;3.67;;
3423;SDS011;72707;50.120;8.500;2023-09-19T03:40:55;5.43;;;3.30;;
3423;SDS011;72707;50.120;8.500;2023-09-19T03:43:21;6.17;;;3.23;;
3423;SDS011;72707;50.120;8.500;2023-09-19T03:45:47;3.10;;;2.77;;
3423;SDS011;72707;50.120;8.500;2023-09-19T03:48:14;4.90;;;3.10;;
3423;SDS011;72707;50.120;8.500;2023-09-19T03:50:41;8.03;;;3.50;;
3423;SDS011;72707;50.120;8.500;2023-09-19T03:53:08;7.27;;;3.53;;
3423;SDS011;72707;50.120;8.500;2023-09-19T03:55:37;6.40;;;3.53;;
3423;SDS011;72707;50.120;8.500;2023-09-19T03:58:04;5.47;;;3.43;;
3423;SDS011;72707;50.120;8.500;2023-09-19T04:00:30;11.20;;;4.60;;
3423;SDS011;72707;50.120;8.500;2023-09-19T04:02:56;6.17;;;3.43;;
3423;SDS011;72707;50.120;8.500;2023-09-19T04:05:22;5.80;;;3.33;;
3423;SDS011;72707;50.120;8.500;2023-09-19T04:07:48;5.77;;;3.23;;
3423;SDS011;72707;50.120;8.500;2023-09-19T04:10:15;6.83;;;3.80;;
3423;SDS011;72707;50.120;8.500;2023-09-19T04:12:40;8.33;;;3.70;;
3423;SDS011;72707;50.120;8.500;2023-09-19T04:15:07;3.97;;;2.73;;
3423;SDS011;72707;50.120;8.500;2023-09-19T04:17:33;5.57;;;3.57;;
3423;SDS011;72707;50.120;8.500;2023-09-19T04:19:59;8.40;;;4.20;;
3423;SDS011;72707;50.120;8.500;2023-09-19T04:22:25;6.93;;;3.73;;
3423;SDS011;72707;50.120;8.500;2023-09-19T04:24:51;6.47;;;3.17;;
3423;SDS011;72707;50.120;8.500;2023-09-19T04:27:16;7.60;;;3.23;;
3423;SDS011;72707;50.120;8.500;2023-09-19T04:29:43;6.20;;;3.00;;
3423;SDS011;72707;50.120;8.500;2023-09-19T04:32:09;7.83;;;3.43;;
3423;SDS011;72707;50.120;8.500;2023-09-19T04:34:35;6.20;;;2.97;;
3423;SDS011;72707;50.120;8.500;2023-09-19T04:37:03;12.33;;;3.47;;
3423;SDS011;72707;50.120;8.500;2023-09-19T04:39:29;4.87;;;2.50;;
3423;SDS011;72707;50.120;8.500;2023-09-19T04:41:55;3.63;;;2.70;;
3423;SDS011;72707;50.120;8.500;2023-09-19T04:44:21;3.67;;;2.63;;
3423;SDS011;72707;50.120;8.500;2023-09-19T04:46:48;5.60;;;2.90;;
3423;SDS011;72707;50.120;8.500;2023-09-19T04:49:14;7.07;;;3.47;;
3423;SDS011;72707;50.120;8.500;2023-09-19T04:51:44;8.27;;;3.27;;
3423;SDS011;72707;50.120;8.500;2023-09-19T04:54:12;11.93;;;4.27;;
3423;SDS011;72707;50.120;8.500;2023-09-19T04:56:38;4.40;;;3.10;;
3423;SDS011;72707;50.120;8.500;2023-09-19T04:59:05;7.30;;;3.27;;
3423;SDS011;72707;50.120;8.500;2023-09-19T05:01:35;6.13;;;2.80;;
3423;SDS011;72707;50.120;8.500;2023-09-19T05:04:01;9.07;;;3.53;;
3423;SDS011;72707;50.120;8.500;2023-09-19T05:06:29;5.63;;;2.53;;
3423;SDS011;72707;50.120;8.500;2023-09-19T05:08:55;11.60;;;3.47;;
3423;SDS011;72707;50.120;8.500;2023-09-19T05:11:21;5.70;;;2.83;;
3423;SDS011;72707;50.120;8.500;2023-09-19T05:13:48;11.17;;;3.80;;
3423;SDS011;72707;50.120;8.500;2023-09-19T05:16:15;4.80;;;2.80;;
3423;SDS011;72707;50.120;8.500;2023-09-19T05:18:44;8.23;;;3.50;;
3423;SDS011;72707;50.120;8.500;2023-09-19T05:21:09;9.33;;;3.60;;
3423;SDS011;72707;50.120;8.500;2023-09-19T05:23:37;10.20;;;3.80;;
3423;SDS011;72707;50.120;8.500;2023-09-19T05:26:02;4.37;;;2.47;;
3423;SDS011;72707;50.120;8.500;2023-09-19T05:28:28;5.40;;;3.20;;
3423;SDS011;72707;50.120;8.500;2023-09-19T05:30:56;7.87;;;3.50;;
3423;SDS011;72707;50.120;8.500;2023-09-19T05:33:21;5.33;;;2.80;;
3423;SDS011;72707;50.120;8.500;2023-09-19T05:35:50;4.87;;;3.40;;
3423;SDS011;72707;50.120;8.500;2023-09-19T05:38:15;4.57;;;2.77;;
3423;SDS011;72707;50.120;8.500;2023-09-19T05:40:44;10.13;;;3.40;;
3423;SDS011;72707;50.120;8.500;2023-09-19T05:43:12;8.00;;;3.27;;
3423;SDS011;72707;50.120;8.500;2023-09-19T05:45:39;12.00;;;3.93;;
3423;SDS011;72707;50.120;8.500;2023-09-19T05:48:09;7.30;;;3.27;;
3423;SDS011;72707;50.120;8.500;2023-09-19T05:50:38;13.53;;;3.87;;
3423;SDS011;72707;50.120;8.500;2023-09-19T05:53:04;8.13;;;3.73;;
3423;SDS011;72707;50.120;8.500;2023-09-19T05:55:30;5.40;;;2.60;;
3423;SDS011;72707;50.120;8.500;2023-09-19T05:57:56;3.37;;;2.63;;
3423;SDS011;72707;50.120;8.500;2023-09-19T06:00:23;11.03;;;3.50;;
3423;SDS011;72707;50.120;8.500;2023-09-19T06:02:51;7.43;;;3.17;;
3423;SDS011;72707;50.120;8.500;2023-09-19T06:05:17;7.47;;;2.80;;
3423;SDS011;72707;50.120;8.500;2023-09-19T06:07:43;4.93;;;2.70;;
3423;SDS011;72707;50.120;8.500;2023-09-19T06:10:09;14.00;;;4.17;;
3423;SDS011;72707;50.120;8.500;2023-09-19T06:12:38;4.70;;;2.90;;
3423;SDS011;72707;50.120;8.500;2023-09-19T06:15:05;12.63;;;4.37;;
3423;SDS011;72707;50.120;8.500;2023-09-19T06:17:33;7.03;;;3.10;;
3423;SDS011;72707;50.120;8.500;2023-09-19T06:20:02;8.40;;;3.20;;
3423;SDS011;72707;50.120;8.500;2023-09-19T06:22:37;5.50;;;2.40;;
3423;SDS011;72707;50.120;8.500;2023-09-19T06:25:03;10.10;;;3.53;;
3423;SDS011;72707;50.120;8.500;2023-09-19T06:27:30;6.33;;;2.60;;
3423;SDS011;72707;50.120;8.500;2023-09-19T06:29:57;14.83;;;4.07;;
3423;SDS011;72707;50.120;8.500;2023-09-19T06:32:27;9.60;;;3.23;;
3423;SDS011;72707;50.120;8.500;2023-09-19T06:34:52;6.30;;;3.07;;
3423;SDS011;72707;50.120;8.500;2023-09-19T06:37:19;6.07;;;2.13;;
3423;SDS011;72707;50.120;8.500;2023-09-19T06:39:47;5.67;;;2.80;;
3423;SDS011;72707;50.120;8.500;2023-09-19T06:42:14;6.13;;;2.80;;
3423;SDS011;72707;50.120;8.500;2023-09-19T06:44:46;3.63;;;2.33;;
3423;SDS011;72707;50.120;8.500;2023-09-19T06:47:11;8.20;;;3.63;;
3423;SDS011;72707;50.120;8.500;2023-09-19T06:49:38;5.60;;;2.63;;
3423;SDS011;72707;50.120;8.500;2023-09-19T06:52:03;5.03;;;2.80;;
3423;SDS011;72707;50.120;8.500;2023-09-19T06:54:29;14.30;;;3.87;;
3423;SDS011;72707;50.120;8.500;2023-09-19T06:56:56;9.07;;;3.17;;
3423;SDS011;72707;50.120;8.500;2023-09-19T06:59:23;9.57;;;3.50;;
3423;SDS011;72707;50.120;8.500;2023-09-19T07:01:49;8.40;;;3.93;;
3423;SDS011;72707;50.120;8.500;2023-09-19T07:04:16;6.57;;;2.93;;
3423;SDS011;72707;50.120;8.500;2023-09-19T07:06:44;6.77;;;2.83;;
3423;SDS011;72707;50.120;8.500;2023-09-19T07:09:14;6.87;;;2.87;;
3423;SDS011;72707;50.120;8.500;2023-09-19T07:11:47;6.73;;;2.50;;
3423;SDS011;72707;50.120;8.500;2023-09-19T07:14:15;4.17;;;2.17;;
3423;SDS011;72707;50.120;8.500;2023-09-19T07:16:41;6.03;;;2.70;;
3423;SDS011;72707;50.120;8.500;2023-09-19T07:19:09;10.03;;;3.30;;
3423;SDS011;72707;50.120;8.500;2023-09-19T07:21:36;8.57;;;2.53;;
3423;SDS011;72707;50.120;8.500;2023-09-19T07:24:03;7.80;;;2.20;;
3423;SDS011;72707;50.120;8.500;2023-09-19T07:26:29;4.60;;;2.23;;
3423;SDS011;72707;50.120;8.500;2023-09-19T07:28:56;4.43;;;1.83;;
3423;SDS011;72707;50.120;8.500;2023-09-19T07:31:23;7.60;;;2.40;;
3423;SDS011;72707;50.120;8.500;2023-09-19T07:33:50;6.53;;;2.73;;
3423;SDS011;72707;50.120;8.500;2023-09-19T07:36:16;5.60;;;2.43;;
3423;SDS011;72707;50.120;8.500;2023-09-19T07:38:42;4.43;;;2.20;;
3423;SDS011;72707;50.120;8.500;2023-09-19T07:41:08;4.87;;;1.93;;
3423;SDS011;72707;50.120;8.500;2023-09-19T07:43:35;7.33;;;2.30;;
3423;SDS011;72707;50.120;8.500;2023-09-19T07:46:02;6.33;;;2.00;;
3423;SDS011;72707;50.120;8.500;2023-09-19T07:48:31;4.30;;;1.77;;
3423;SDS011;72707;50.120;8.500;2023-09-19T07:51:01;2.77;;;1.73;;
3423;SDS011;72707;50.120;8.500;2023-09-19T07:53:28;4.70;;;1.77;;
3423;SDS011;72707;50.120;8.500;2023-09-19T07:56:01;6.80;;;2.70;;
3423;SDS011;72707;50.120;8.500;2023-09-19T07:58:28;10.40;;;2.97;;
3423;SDS011;72707;50.120;8.500;2023-09-19T08:00:54;7.30;;;2.43;;
3423;SDS011;72707;50.120;8.500;2023-09-19T08:03:21;4.77;;;1.90;;
3423;SDS011;72707;50.120;8.500;2023-09-19T08:05:47;11.63;;;2.93;;
3423;SDS011;72707;50.120;8.500;2023-09-19T08:08:14;5.97;;;1.90;;
3423;SDS011;72707;50.120;8.500;2023-09-19T08:10:40;7.87;;;2.33;;
3423;SDS011;72707;50.120;8.500;2023-09-19T08:13:07;18.23;;;3.53;;
3423;SDS011;72707;50.120;8.500;2023-09-19T08:15:43;7.97;;;2.43;;
3423;SDS011;72707;50.120;8.500;2023-09-19T08:18:13;5.27;;;2.00;;
3423;SDS011;72707;50.120;8.500;2023-09-19T08:20:40;5.83;;;2.40;;
3423;SDS011;72707;50.120;8.500;2023-09-19T08:23:07;5.30;;;1.57;;
3423;SDS011;72707;50.120;8.500;2023-09-19T08:25:33;6.23;;;1.60;;
3423;SDS011;72707;50.120;8.500;2023-09-19T08:27:59;7.63;;;2.23;;
3423;SDS011;72707;50.120;8.500;2023-09-19T08:30:30;6.40;;;1.87;;
3423;SDS011;72707;50.120;8.500;2023-09-19T08:32:57;9.97;;;3.07;;
3423;SDS011;72707;50.120;8.500;2023-09-19T08:35:23;4.20;;;1.73;;
3423;SDS011;72707;50.120;8.500;2023-09-19T08:37:49;8.13;;;2.50;;
3423;SDS011;72707;50.120;8.500;2023-09-19T08:40:16;6.87;;;1.77;;
3423;SDS011;72707;50.120;8.500;2023-09-19T08:42:52;4.23;;;1.50;;
3423;SDS011;72707;50.120;8.500;2023-09-19T08:45:19;6.60;;;1.93;;
3423;SDS011;72707;50.120;8.500;2023-09-19T08:47:50;7.77;;;2.37;;
3423;SDS011;72707;50.120;8.500;2023-09-19T08:50:28;10.60;;;2.77;;
3423;SDS011;72707;50.120;8.500;2023-09-19T08:52:55;12.50;;;2.70;;
3423;SDS011;72707;50.120;8.500;2023-09-19T08:55:23;5.43;;;1.60;;
3423;SDS011;72707;50.120;8.500;2023-09-19T08:58:01;4.90;;;1.80;;
3423;SDS011;72707;50.120;8.500;2023-09-19T09:00:31;6.90;;;2.27;;
3423;SDS011;72707;50.120;8.500;2023-09-19T09:03:03;7.03;;;2.13;;
3423;SDS011;72707;50.120;8.500;2023-09-19T09:05:34;11.77;;;2.60;;
3423;SDS011;72707;50.120;8.500;2023-09-19T09:08:01;6.77;;;2.30;;
3423;SDS011;72707;50.120;8.500;2023-09-19T09:10:28;8.23;;;2.07;;
3423;SDS011;72707;50.120;8.500;2023-09-19T09:12:54;6.17;;;1.97;;
3423;SDS011;72707;50.120;8.500;2023-09-19T09:15:21;8.13;;;2.30;;
3423;SDS011;72707;50.120;8.500;2023-09-19T09:17:48;6.57;;;1.90;;
3423;SDS011;72707;50.120;8.500;2023-09-19T09:20:15;10.00;;;2.50;;
3423;SDS011;72707;50.120;8.500;2023-09-19T09:22:55;8.43;;;2.57;;
3423;SDS011;72707;50.120;8.500;2023-09-19T09:25:25;12.73;;;3.53;;
3423;SDS011;72707;50.120;8.500;2023-09-19T09:28:22;10.40;;;2.77;;
3423;SDS011;72707;50.120;8.500;2023-09-19T09:30:53;10.17;;;2.67;;
3423;SDS011;72707;50.120;8.500;2023-09-19T09:33:20;11.33;;;2.73;;
3423;SDS011;72707;50.120;8.500;2023-09-19T09:35:50;4.10;;;1.37;;
3423;SDS011;72707;50.120;8.500;2023-09-19T09:38:22;6.53;;;2.17;;
3423;SDS011;72707;50.120;8.500;2023-09-19T09:40:58;6.67;;;1.63;;
3423;SDS011;72707;50.120;8.500;2023-09-19T09:43:37;4.03;;;2.00;;
3423;SDS011;72707;50.120;8.500;2023-09-19T09:46:07;13.27;;;2.50;;
3423;SDS011;72707;50.120;8.500;2023-09-19T09:48:57;11.23;;;2.47;;
3423;SDS011;72707;50.120;8.500;2023-09-19T09:54:17;9.27;;;2.23;;
3423;SDS011;72707;50.120;8.500;2023-09-19T09:56:54;8.47;;;2.23;;
3423;SDS011;72707;50.120;8.500;2023-09-19T10:02:37;9.53;;;2.53;;
3423;SDS011;72707;50.120;8.500;2023-09-19T10:07:52;9.77;;;2.43;;
3423;SDS011;72707;50.120;8.500;2023-09-19T10:13:20;13.37;;;2.97;;
3423;SDS011;72707;50.120;8.500;2023-09-19T10:15:52;8.50;;;3.00;;
3423;SDS011;72707;50.120;8.500;2023-09-19T10:18:21;8.13;;;2.27;;
3423;SDS011;72707;50.120;8.500;2023-09-19T10:20:50;7.70;;;2.23;;
3423;SDS011;72707;50.120;8.500;2023-09-19T10:23:17;8.87;;;2.63;;
3423;SDS011;72707;50.120;8.500;2023-09-19T10:25:49;11.10;;;2.73;;
3423;SDS011;72707;50.120;8.500;2023-09-19T10:28:16;9.50;;;2.30;;
3423;SDS011;72707;50.120;8.500;2023-09-19T10:30:47;7.93;;;2.23;;
3423;SDS011;72707;50.120;8.500;2023-09-19T10:33:16;13.20;;;2.80;;
3423;SDS011;72707;50.120;8.500;2023-09-19T10:35:43;7.33;;;1.87;;
3423;SDS011;72707;50.120;8.500;2023-09-19T10:38:10;6.97;;;2.03;;
3423;SDS011;72707;50.120;8.500;2023-09-19T10:40:37;12.57;;;3.20;;
3423;SDS011;72707;50.120;8.500;2023-09-19T10:43:12;8.20;;;2.47;;
3423;SDS011;72707;50.120;8.500;2023-09-19T10:45:46;7.87;;;2.17;;
3423;SDS011;72707;50.120;8.500;2023-09-19T10:48:14;10.83;;;3.30;;
3423;SDS011;72707;50.120;8.500;2023-09-19T10:50:45;5.03;;;1.77;;
3423;SDS011;72707;50.120;8.500;2023-09-19T10:53:16;11.93;;;3.13;;
3423;SDS011;72707;50.120;8.500;2023-09-19T10:55:47;11.97;;;2.57;;
3423;SDS011;72707;50.120;8.500;2023-09-19T10:58:24;13.83;;;2.50;;
3423;SDS011;72707;50.120;8.500;2023-09-19T11:00:57;5.20;;;1.33;;
3423;SDS011;72707;50.120;8.500;2023-09-19T11:03:41;8.90;;;2.13;;
3423;SDS011;72707;50.120;8.500;2023-09-19T11:06:17;6.63;;;2.13;;
3423;SDS011;72707;50.120;8.500;2023-09-19T11:08:54;9.13;;;1.90;;
3423;SDS011;72707;50.120;8.500;2023-09-19T11:11:47;8.60;;;3.03;;
3423;SDS011;72707;50.120;8.500;2023-09-19T11:30:48;8.75;;;2.05;;
3423;SDS011;72707;50.120;8.500;2023-09-19T11:44:33;4.38;;;1.95;;
3423;SDS011;72707;50.120;8.500;2023-09-19T11:47:11;7.80;;;2.20;;
3423;SDS011;72707;50.120;8.500;2023-09-19T11:49:31;9.07;;;2.60;;
3423;SDS011;72707;50.120;8.500;2023-09-19T11:51:58;10.10;;;2.88;;
3423;SDS011;72707;50.120;8.500;2023-09-19T11:54:31;11.52;;;3.00;;
3423;SDS011;72707;50.120;8.500;2023-09-19T11:56:59;6.55;;;1.98;;
3423;SDS011;72707;50.120;8.500;2023-09-19T11:59:29;9.68;;;2.72;;
3423;SDS011;72707;50.120;8.500;2023-09-19T12:02:03;5.78;;;1.75;;
3423;SDS011;72707;50.120;8.500;2023-09-19T12:07:03;9.65;;;2.75;;
3423;SDS011;72707;50.120;8.500;2023-09-19T12:09:30;6.95;;;2.05;;
3423;SDS011;72707;50.120;8.500;2023-09-19T12:11:57;6.35;;;1.45;;
3423;SDS011;72707;50.120;8.500;2023-09-19T12:14:24;3.97;;;1.33;;
3423;SDS011;72707;50.120;8.500;2023-09-19T12:16:55;4.53;;;1.60;;
3423;SDS011;72707;50.120;8.500;2023-09-19T12:19:23;12.32;;;3.63;;
3423;SDS011;72707;50.120;8.500;2023-09-19T12:21:59;7.07;;;1.90;;
3423;SDS011;72707;50.120;8.500;2023-09-19T12:24:34;7.68;;;1.88;;
3423;SDS011;72707;50.120;8.500;2023-09-19T12:27:04;8.73;;;2.25;;
3423;SDS011;72707;50.120;8.500;2023-09-19T12:29:32;8.73;;;2.40;;
3423;SDS011;72707;50.120;8.500;2023-09-19T12:32:11;6.18;;;1.73;;
3423;SDS011;72707;50.120;8.500;2023-09-19T12:34:37;4.78;;;1.63;;
3423;SDS011;72707;50.120;8.500;2023-09-19T12:37:16;9.50;;;2.40;;
3423;SDS011;72707;50.120;8.500;2023-09-19T12:39:51;6.25;;;2.28;;
3423;SDS011;72707;50.120;8.500;2023-09-19T12:42:22;5.68;;;1.70;;
3423;SDS011;72707;50.120;8.500;2023-09-19T12:44:50;4.97;;;2.05;;
3423;SDS011;72707;50.120;8.500;2023-09-19T12:47:25;5.88;;;1.67;;
3423;SDS011;72707;50.120;8.500;2023-09-19T12:52:43;6.28;;;2.00;;
3423;SDS011;72707;50.120;8.500;2023-09-19T12:55:20;3.83;;;1.27;;
3423;SDS011;72707;50.120;8.500;2023-09-19T12:58:07;2.95;;;1.20;;
3423;SDS011;72707;50.120;8.500;2023-09-19T13:00:44;4.97;;;1.42;;
3423;SDS011;72707;50.120;8.500;2023-09-19T13:03:14;3.65;;;1.25;;
3423;SDS011;72707;50.120;8.500;2023-09-19T13:05:58;3.72;;;1.38;;
3423;SDS011;72707;50.120;8.500;2023-09-19T13:08:32;4.88;;;1.48;;
3423;SDS011;72707;50.120;8.500;2023-09-19T13:11:09;5.90;;;1.73;;
3423;SDS011;72707;50.120;8.500;2023-09-19T13:13:49;4.97;;;1.48;;
3423;SDS011;72707;50.120;8.500;2023-09-19T13:16:52;3.22;;;1.25;;
3423;SDS011;72707;50.120;8.500;2023-09-19T13:19:38;4.45;;;1.48;;
3423;SDS011;72707;50.120;8.500;2023-09-19T13:25:13;6.78;;;1.70;;
3423;SDS011;72707;50.120;8.500;2023-09-19T13:27:51;5.15;;;1.60;;
3423;SDS011;72707;50.120;8.500;2023-09-19T13:30:25;3.90;;;1.58;;
3423;SDS011;72707;50.120;8.500;2023-09-19T13:33:10;5.50;;;1.40;;
3423;SDS011;72707;50.120;8.500;2023-09-19T13:35:38;4.40;;;1.60;;
3423;SDS011;72707;50.120;8.500;2023-09-19T13:38:06;5.30;;;1.65;;
3423;SDS011;72707;50.120;8.500;2023-09-19T13:40:36;4.55;;;2.03;;
3423;SDS011;72707;50.120;8.500;2023-09-19T13:43:04;8.10;;;2.00;;
3423;SDS011;72707;50.120;8.500;2023-09-19T13:45:33;4.22;;;1.80;;
3423;SDS011;72707;50.120;8.500;2023-09-19T13:47:59;4.18;;;1.50;;
3423;SDS011;72707;50.120;8.500;2023-09-19T13:50:24;1.35;;;0.95;;
3423;SDS011;72707;50.120;8.500;2023-09-19T13:52:51;4.07;;;1.20;;
3423;SDS011;72707;50.120;8.500;2023-09-19T13:55:18;4.55;;;1.02;;
3423;SDS011;72707;50.120;8.500;2023-09-19T13:57:47;3.10;;;1.15;;
3423;SDS011;72707;50.120;8.500;2023-09-19T14:00:20;2.58;;;1.10;;
3423;SDS011;72707;50.120;8.500;2023-09-19T14:02:47;5.50;;;2.58;;
3423;SDS011;72707;50.120;8.500;2023-09-19T14:05:14;2.90;;;1.17;;
3423;SDS011;72707;50.120;8.500;2023-09-19T14:07:41;3.53;;;1.30;;
3423;SDS011;72707;50.120;8.500;2023-09-19T14:10:07;3.45;;;1.40;;
3423;SDS011;72707;50.120;8.500;2023-09-19T14:12:36;4.47;;;1.50;;
3423;SDS011;72707;50.120;8.500;2023-09-19T14:15:03;5.13;;;1.60;;
3423;SDS011;72707;50.120;8.500;2023-09-19T14:17:29;4.30;;;1.23;;
3423;SDS011;72707;50.120;8.500;2023-09-19T14:19:55;4.22;;;1.65;;
3423;SDS011;72707;50.120;8.500;2023-09-19T14:22:21;4.25;;;1.20;;
3423;SDS011;72707;50.120;8.500;2023-09-19T14:24:49;3.55;;;1.15;;
3423;SDS011;72707;50.120;8.500;2023-09-19T14:27:15;6.53;;;1.90;;
3423;SDS011;72707;50.120;8.500;2023-09-19T14:29:41;6.00;;;2.22;;
3423;SDS011;72707;50.120;8.500;2023-09-19T14:32:07;3.53;;;1.25;;
3423;SDS011;72707;50.120;8.500;2023-09-19T14:34:32;4.43;;;1.35;;
3423;SDS011;72707;50.120;8.500;2023-09-19T14:37:01;6.47;;;1.65;;
3423;SDS011;72707;50.120;8.500;2023-09-19T14:39:28;4.18;;;1.70;;
3423;SDS011;72707;50.120;8.500;2023-09-19T14:41:54;4.78;;;1.42;;
3423;SDS011;72707;50.120;8.500;2023-09-19T14:44:19;6.25;;;2.05;;
3423;SDS011;72707;50.120;8.500;2023-09-19T14:46:45;2.85;;;1.25;;
3423;SDS011;72707;50.120;8.500;2023-09-19T14:49:11;3.05;;;1.25;;
3423;SDS011;72707;50.120;8.500;2023-09-19T14:51:37;4.13;;;1.23;;
3423;SDS011;72707;50.120;8.500;2023-09-19T14:54:04;4.50;;;1.65;;
3423;SDS011;72707;50.120;8.500;2023-09-19T14:56:33;3.50;;;1.58;;
3423;SDS011;72707;50.120;8.500;2023-09-19T14:58:59;3.55;;;1.30;;
3423;SDS011;72707;50.120;8.500;2023-09-19T15:01:28;5.22;;;1.52;;
3423;SDS011;72707;50.120;8.500;2023-09-19T15:03:56;3.33;;;1.08;;
3423;SDS011;72707;50.120;8.500;2023-09-19T15:06:22;4.28;;;1.27;;
3423;SDS011;72707;50.120;8.500;2023-09-19T15:08:48;3.97;;;1.48;;
3423;SDS011;72707;50.120;8.500;2023-09-19T15:11:16;2.35;;;0.98;;
3423;SDS011;72707;50.120;8.500;2023-09-19T15:13:42;5.68;;;1.52;;
3423;SDS011;72707;50.120;8.500;2023-09-19T15:16:10;5.60;;;2.10;;
3423;SDS011;72707;50.120;8.500;2023-09-19T15:18:36;4.05;;;1.65;;
3423;SDS011;72707;50.120;8.500;2023-09-19T15:21:06;3.05;;;1.20;;
3423;SDS011;72707;50.120;8.500;2023-09-19T15:23:33;3.03;;;1.00;;
3423;SDS011;72707;50.120;8.500;2023-09-19T15:26:06;4.75;;;1.38;;
3423;SDS011;72707;50.120;8.500;2023-09-19T15:28:38;5.43;;;1.75;;
3423;SDS011;72707;50.120;8.500;2023-09-19T15:31:04;5.78;;;1.90;;
3423;SDS011;72707;50.120;8.500;2023-09-19T15:33:36;4.90;;;1.75;;
3423;SDS011;72707;50.120;8.500;2023-09-19T15:41:33;8.32;;;2.47;;
3423;SDS011;72707;50.120;8.500;2023-09-19T15:44:00;5.45;;;1.85;;
3423;SDS011;72707;50.120;8.500;2023-09-19T15:46:29;3.70;;;1.63;;
3423;SDS011;72707;50.120;8.500;2023-09-19T15:48:56;8.43;;;2.10;;
3423;SDS011;72707;50.120;8.500;2023-09-19T15:51:23;5.60;;;1.70;;
3423;SDS011;72707;50.120;8.500;2023-09-19T15:53:49;5.13;;;1.63;;
3423;SDS011;72707;50.120;8.500;2023-09-19T15:56:17;3.42;;;1.38;;
3423;SDS011;72707;50.120;8.500;2023-09-19T15:58:47;6.83;;;1.60;;
3423;SDS011;72707;50.120;8.500;2023-09-19T16:01:13;2.77;;;1.30;;
3423;SDS011;72707;50.120;8.500;2023-09-19T16:03:40;3.63;;;1.58;;
3423;SDS011;72707;50.120;8.500;2023-09-19T16:06:12;3.92;;;1.60;;
3423;SDS011;72707;50.120;8.500;2023-09-19T16:08:47;4.33;;;1.53;;
3423;SDS011;72707;50.120;8.500;2023-09-19T16:11:14;5.07;;;1.83;;
3423;SDS011;72707;50.120;8.500;2023-09-19T16:13:41;5.63;;;1.90;;